Time;durP1;ratioP1;P1;durP2;ratioP2;P2;SDS_P1;SDS_P2;PMS_P1;PMS_P2;Temp;Humidity;BMP_temperature;BMP_pressure;BME280_temperature;BME280_humidity;BME280_pressure;Samples;Min_cycle;Max_cycle;Signal;HPM_P1;HPM_P2
2022/07/30 00:03:49;;;;;;;2.50;0.95;;;;;;;18.66;60.67;100897.23;5219301;56;1139001;-65
2022/07/30 00:08:54;;;;;;;3.55;0.93;;;;;;;18.58;61.02;100884.66;5219164;56;1138986;-63
2022/07/30 00:14:00;;;;;;;1.02;0.93;;;;;;;18.54;61.78;100879.75;5219366;56;1138936;-64
2022/07/30 00:19:05;;;;;;;2.22;0.88;;;;;;;18.50;62.06;100884.58;5219273;56;1138932;-66
2022/07/30 00:24:12;;;;;;;4.95;0.88;;;;;;;18.40;62.16;100888.40;5234010;55;1138943;-63
2022/07/30 00:29:18;;;;;;;5.00;0.80;;;;;;;18.33;62.56;100873.98;5232669;55;1139111;-64
2022/07/30 00:34:24;;;;;;;3.52;1.42;;;;;;;18.33;62.76;100876.66;5129743;56;1137100;-66
2022/07/30 00:39:30;;;;;;;5.00;1.45;;;;;;;18.31;62.71;100881.34;5121912;57;1136972;-64
2022/07/30 00:44:36;;;;;;;2.08;1.00;;;;;;;18.31;62.87;100861.25;5175996;56;1137171;-65
2022/07/30 00:49:41;;;;;;;1.17;0.90;;;;;;;18.24;63.16;100849.83;5207061;56;1136883;-66
2022/07/30 00:54:47;;;;;;;8.78;1.12;;;;;;;18.06;63.68;100846.89;5207182;56;1137273;-63
2022/07/30 00:59:52;;;;;;;5.97;1.20;;;;;;;17.95;64.62;100848.51;5207022;56;1137171;-67
2022/07/30 01:04:58;;;;;;;2.00;1.00;;;;;;;17.85;64.28;100848.13;5207016;56;1136941;-64
2022/07/30 01:10:06;;;;;;;2.42;0.98;;;;;;;17.78;64.87;100847.07;5206993;56;1137039;-65
2022/07/30 01:15:12;;;;;;;1.42;0.90;;;;;;;17.74;64.84;100844.86;5207027;56;1136902;-66
2022/07/30 01:20:28;;;;;;;4.97;1.10;;;;;;;17.73;65.16;100848.03;5207303;56;1136958;-64
2022/07/30 01:26:00;;;;;;;3.15;1.00;;;;;;;17.69;65.28;100847.19;5203940;56;1137138;-66
2022/07/30 01:31:08;;;;;;;8.18;1.52;;;;;;;17.66;65.50;100845.66;5206046;55;1134896;-64
2022/07/30 01:36:17;;;;;;;5.67;1.20;;;;;;;17.57;65.98;100844.71;5205895;56;1203737;-64
2022/07/30 01:41:24;;;;;;;14.77;1.70;;;;;;;17.53;66.01;100849.21;5207136;56;1138951;-62
2022/07/30 01:46:31;;;;;;;5.10;1.30;;;;;;;17.61;66.21;100852.43;5149110;56;1141346;-64
2022/07/30 01:51:38;;;;;;;3.08;1.42;;;;;;;17.59;66.07;100845.40;5206921;56;1139028;-62
2022/07/30 01:56:46;;;;;;;4.62;1.45;;;;;;;17.53;66.31;100835.84;5180600;56;1139007;-62
2022/07/30 02:01:52;;;;;;;6.30;1.87;;;;;;;17.49;66.13;100822.43;5206884;56;1138928;-64
2022/07/30 02:07:06;;;;;;;7.50;2.37;;;;;;;17.42;66.24;100816.86;5206681;56;1138965;-65
2022/07/30 02:12:29;;;;;;;5.70;1.90;;;;;;;17.39;66.25;100806.50;5206785;56;1139052;-62
2022/07/30 02:18:03;;;;;;;8.83;1.67;;;;;;;17.35;66.15;100811.80;5067973;57;1139054;-62
2022/07/30 02:23:12;;;;;;;3.33;1.80;;;;;;;17.32;66.15;100826.81;5033080;57;1139143;-62
2022/07/30 02:28:21;;;;;;;8.33;1.70;;;;;;;17.28;66.04;100817.91;5009949;57;1139282;-63
2022/07/30 02:33:34;;;;;;;4.33;1.70;;;;;;;17.21;66.15;100807.86;5029576;58;1139017;-61
2022/07/30 02:38:41;;;;;;;7.87;1.63;;;;;;;17.19;66.23;100804.98;5009378;58;1139017;-61
2022/07/30 02:43:50;;;;;;;9.67;2.80;;;;;;;17.17;66.20;100809.64;5040550;57;1139033;-61
2022/07/30 02:48:58;;;;;;;10.20;1.50;;;;;;;17.10;66.19;100815.28;5021328;58;1139087;-64
2022/07/30 02:54:06;;;;;;;2.43;1.73;;;;;;;17.05;66.37;100810.39;5002159;58;1141109;-62
2022/07/30 02:59:13;;;;;;;7.70;2.07;;;;;;;17.09;66.33;100808.25;5005534;58;1139170;-63
2022/07/30 03:04:22;;;;;;;7.60;2.30;;;;;;;17.09;66.38;100801.08;4962592;59;1138956;-64
2022/07/30 03:09:30;;;;;;;3.97;1.60;;;;;;;17.06;66.27;100788.02;5046157;58;1139093;-64
2022/07/30 03:14:36;;;;;;;7.40;1.67;;;;;;;16.98;66.42;100797.78;5044475;58;1139099;-63
2022/07/30 03:19:43;;;;;;;5.90;1.80;;;;;;;16.96;66.62;100799.27;5035261;57;1138894;-64
2022/07/30 03:24:50;;;;;;;6.77;2.50;;;;;;;16.90;66.62;100789.21;5067830;57;1139059;-63
2022/07/30 03:29:58;;;;;;;14.33;3.17;;;;;;;16.82;66.99;100774.42;4993311;57;1138941;-63
2022/07/30 03:35:07;;;;;;;7.53;2.10;;;;;;;16.84;67.02;100770.61;5018544;57;1138996;-63
2022/07/30 03:40:15;;;;;;;5.67;2.00;;;;;;;16.83;67.05;100770.77;5231154;56;1136918;-63
2022/07/30 03:45:21;;;;;;;9.63;2.37;;;;;;;16.82;67.18;100767.75;5236164;56;1136914;-61
2022/07/30 03:50:29;;;;;;;4.90;2.13;;;;;;;16.81;67.26;100757.56;5237085;56;1136875;-62
2022/07/30 03:55:36;;;;;;;2.73;2.10;;;;;;;16.81;67.26;100761.56;5217404;56;1136930;-64
2022/07/30 04:00:51;;;;;;;8.43;1.97;;;;;;;16.75;67.45;100748.84;4984402;58;1136999;-62
2022/07/30 04:05:57;;;;;;;5.70;2.23;;;;;;;16.73;67.89;100741.97;4984804;58;1136974;-63
2022/07/30 04:11:04;;;;;;;19.70;2.83;;;;;;;16.70;67.98;100740.94;4987973;58;1136918;-62
2022/07/30 04:16:30;;;;;;;10.40;2.97;;;;;;;16.75;68.13;100739.98;4984078;59;1139207;-64
2022/07/30 04:21:38;;;;;;;6.50;2.53;;;;;;;16.72;68.24;100739.79;4901135;60;1139149;-63
2022/07/30 04:26:45;;;;;;;9.27;2.23;;;;;;;16.71;68.43;100735.44;4996168;59;1134866;-64
2022/07/30 04:31:55;;;;;;;8.47;2.90;;;;;;;16.74;68.51;100742.31;5023591;58;1139387;-65
2022/07/30 04:37:16;;;;;;;11.13;2.93;;;;;;;16.76;68.84;100751.02;5060609;57;1139175;-63
2022/07/30 04:42:23;;;;;;;3.50;2.10;;;;;;;16.78;68.74;100754.38;5128467;57;1141366;-64
2022/07/30 04:47:31;;;;;;;2.20;2.00;;;;;;;16.78;68.97;100760.56;5046619;58;1138986;-64
2022/07/30 04:52:56;;;;;;;11.43;2.10;;;;;;;16.85;69.37;100760.77;4920111;59;1139001;-61
2022/07/30 04:58:09;;;;;;;9.50;2.17;;;;;;;17.00;69.28;100764.58;5051240;58;1141127;-62
2022/07/30 05:03:17;;;;;;;14.23;2.97;;;;;;;17.09;69.03;100758.32;5116435;57;1139113;-62
2022/07/30 05:08:29;;;;;;;10.57;2.00;;;;;;;17.20;69.33;100759.89;5145996;57;1141015;-62
2022/07/30 05:13:36;;;;;;;3.53;1.90;;;;;;;17.30;69.27;100767.80;5146182;57;1140628;-64
2022/07/30 05:18:42;;;;;;;11.36;3.18;;;;;;;17.35;69.26;100756.16;5146122;57;1138968;-65
2022/07/30 05:23:48;;;;;;;10.20;2.27;;;;;;;17.39;69.20;100758.37;5146072;57;1141160;-62
2022/07/30 05:28:56;;;;;;;8.57;2.80;;;;;;;17.42;69.19;100759.86;5122010;57;1141014;-63
2022/07/30 05:34:03;;;;;;;8.83;2.37;;;;;;;17.47;69.25;100761.58;4977619;58;1138959;-64
2022/07/30 05:39:10;;;;;;;13.83;2.30;;;;;;;17.50;69.34;100759.93;5042743;57;1139355;-62
2022/07/30 05:44:24;;;;;;;8.93;2.30;;;;;;;17.54;69.37;100756.80;5078274;57;1141266;-62
2022/07/30 05:49:30;;;;;;;9.33;2.57;;;;;;;17.58;69.60;100746.09;5049862;58;1139232;-64
2022/07/30 05:54:38;;;;;;;8.87;2.03;;;;;;;17.63;69.46;100746.13;5082492;57;1139308;-62
2022/07/30 05:59:49;;;;;;;6.23;2.40;;;;;;;17.67;69.60;100743.02;5105910;56;1139005;-64
2022/07/30 06:04:59;;;;;;;25.13;3.00;;;;;;;17.73;69.44;100751.72;5115145;56;1139058;-61
2022/07/30 06:10:06;;;;;;;13.43;3.70;;;;;;;17.78;69.60;100748.08;5116971;56;1141063;-63
2022/07/30 06:15:13;;;;;;;8.70;2.57;;;;;;;17.88;69.43;100750.62;5083345;57;1141414;-64
2022/07/30 06:20:21;;;;;;;10.60;2.97;;;;;;;17.98;69.26;100754.03;5162277;56;1139204;-64
2022/07/30 06:25:44;;;;;;;13.22;3.00;;;;;;;18.17;68.40;100760.47;5137636;56;1138887;-64
2022/07/30 06:30:50;;;;;;;38.03;4.73;;;;;;;18.17;68.40;100760.47;5136182;56;1139256;-63
2022/07/30 06:35:56;;;;;;;19.35;6.00;;;;;;;18.22;68.15;100754.60;5078502;57;1139067;-62
2022/07/30 06:41:04;;;;;;;25.37;8.87;;;;;;;18.30;67.86;100757.83;5078366;57;1139183;-64
2022/07/30 06:46:29;;;;;;;14.53;5.03;;;;;;;18.40;67.95;100753.16;5078246;57;1139023;-63
2022/07/30 06:51:35;;;;;;;57.37;10.80;;;;;;;18.53;67.36;100754.34;5078747;57;1139262;-65
2022/07/30 06:56:42;;;;;;;51.47;26.30;;;;;;;18.60;66.87;100749.22;5079997;57;1141090;-65
2022/07/30 07:01:49;;;;;;;24.57;5.10;;;;;;;18.69;66.87;100750.89;5108356;57;1141077;-64
2022/07/30 07:06:56;;;;;;;11.08;4.12;;;;;;;18.78;66.19;100751.25;5111036;57;1138955;-64
2022/07/30 07:12:04;;;;;;;10.70;3.85;;;;;;;18.87;66.01;100752.08;5097537;56;1139015;-64
2022/07/30 07:17:10;;;;;;;8.68;3.33;;;;;;;19.00;65.90;100741.70;5072059;57;1139096;-63
2022/07/30 07:22:33;;;;;;;12.87;2.80;;;;;;;19.11;64.83;100743.19;5124910;57;1138899;-61
2022/07/30 07:27:39;;;;;;;13.90;2.85;;;;;;;19.20;64.90;100742.19;4994486;58;1141011;-62
2022/07/30 07:32:45;;;;;;;29.37;3.57;;;;;;;19.32;64.87;100743.01;5077613;57;1141027;-65
2022/07/30 07:37:51;;;;;;;17.05;2.83;;;;;;;19.43;64.54;100745.83;5084866;57;1141015;-64
2022/07/30 07:42:59;;;;;;;23.45;2.75;;;;;;;19.58;64.41;100737.95;5263746;55;1141032;-65
2022/07/30 07:48:05;;;;;;;4.12;1.77;;;;;;;19.81;64.74;100721.45;5192489;55;1141079;-65
2022/07/30 07:53:18;;;;;;;62.50;4.78;;;;;;;20.02;63.63;100716.30;5072642;56;1139231;-62
2022/07/30 07:58:24;;;;;;;5.67;3.52;;;;;;;20.21;63.42;100726.28;5141365;57;1140928;-63
2022/07/30 08:03:30;;;;;;;9.80;1.75;;;;;;;20.38;62.84;100713.12;5082965;56;1138911;-63
2022/07/30 08:08:37;;;;;;;29.02;2.62;;;;;;;20.53;62.19;100713.19;5179797;55;1139382;-64
2022/07/30 08:13:48;;;;;;;8.78;1.60;;;;;;;20.69;61.43;100712.56;5136036;56;1141030;-63
2022/07/30 08:19:13;;;;;;;14.00;1.40;;;;;;;20.86;61.78;100715.95;5139058;57;1138881;-62
2022/07/30 08:24:21;;;;;;;9.28;2.00;;;;;;;21.01;60.36;100714.14;5296487;55;1140998;-63
2022/07/30 08:29:27;;;;;;;11.03;1.92;;;;;;;21.08;59.90;100715.61;5296811;56;1138953;-66
2022/07/30 08:34:32;;;;;;;10.55;1.37;;;;;;;21.17;59.67;100711.81;5214409;56;1141074;-63
2022/07/30 08:39:39;;;;;;;10.00;1.40;;;;;;;21.28;59.75;100703.83;5231486;55;1141072;-66
2022/07/30 08:44:46;;;;;;;31.40;2.20;;;;;;;21.45;59.38;100705.33;5241564;55;1141061;-64
2022/07/30 08:49:54;;;;;;;39.83;4.40;;;;;;;21.55;58.80;100709.08;5246552;55;1141262;-65
2022/07/30 08:55:02;;;;;;;4.53;1.15;;;;;;;21.63;59.18;100702.27;5300250;55;1141083;-65
2022/07/30 09:00:09;;;;;;;11.95;1.45;;;;;;;21.70;57.88;100705.87;5300130;55;1139268;-65
2022/07/30 09:05:15;;;;;;;7.75;1.17;;;;;;;21.74;58.37;100705.31;5300199;55;1141399;-64
2022/07/30 09:10:23;;;;;;;9.20;1.62;;;;;;;21.79;58.24;100698.03;5296947;55;1139280;-64
2022/07/30 09:15:29;;;;;;;17.10;2.47;;;;;;;21.84;58.34;100697.48;5294889;55;1139278;-64
2022/07/30 09:20:37;;;;;;;17.98;1.50;;;;;;;21.95;58.46;100693.79;5300143;55;1141112;-65
2022/07/30 09:25:47;;;;;;;43.58;2.85;;;;;;;22.05;58.41;100696.20;5296592;55;1141168;-67
2022/07/30 09:31:11;;;;;;;12.80;1.75;;;;;;;22.22;58.39;100700.86;5259549;55;1138994;-64
2022/07/30 09:36:35;;;;;;;9.33;2.47;;;;;;;22.36;57.70;100691.37;5285750;55;1138988;-64
2022/07/30 09:41:43;;;;;;;15.10;1.50;;;;;;;22.46;57.55;100695.09;5183924;56;1136963;-65
2022/07/30 09:46:51;;;;;;;10.25;1.17;;;;;;;22.52;56.02;100688.95;5207945;56;1139215;-64
2022/07/30 09:51:58;;;;;;;12.90;2.00;;;;;;;22.60;56.47;100680.75;5217036;56;1138972;-64
2022/07/30 09:57:07;;;;;;;6.87;1.30;;;;;;;22.71;55.60;100686.12;5217358;56;1139003;-65
2022/07/30 10:02:14;;;;;;;15.98;1.67;;;;;;;22.71;54.72;100683.42;5201725;55;1136991;-65
2022/07/30 10:07:31;;;;;;;37.48;2.52;;;;;;;22.69;53.81;100682.27;5051957;57;1139293;-66
2022/07/30 10:12:38;;;;;;;19.32;1.25;;;;;;;22.73;53.79;100681.37;5097376;57;1139216;-66
2022/07/30 10:17:48;;;;;;;12.90;1.60;;;;;;;22.75;51.33;100678.80;5025202;57;1139260;-64
2022/07/30 10:22:56;;;;;;;18.90;2.52;;;;;;;22.79;51.30;100676.05;5058712;57;1137256;-66
2022/07/30 10:28:14;;;;;;;25.47;2.40;;;;;;;22.87;52.22;100675.61;5076937;57;1141209;-66
2022/07/30 10:33:25;;;;;;;18.52;1.65;;;;;;;22.91;51.21;100674.20;5064308;57;1141050;-66
2022/07/30 10:38:36;;;;;;;24.92;1.35;;;;;;;23.00;51.25;100683.80;5163399;56;1140998;-64
2022/07/30 10:44:26;;;;;;;12.60;1.67;;;;;;;23.09;51.63;100682.61;5131715;56;1141262;-64
2022/07/30 10:49:32;;;;;;;9.83;1.72;;;;;;;23.12;49.95;100679.52;4988881;56;1141053;-64
2022/07/30 10:54:43;;;;;;;6.37;1.25;;;;;;;23.19;50.10;100686.33;5133919;57;1138959;-64
2022/07/30 11:00:03;;;;;;;5.80;1.20;;;;;;;23.25;49.52;100678.78;5134021;57;1139095;-64
2022/07/30 11:05:23;;;;;;;12.10;1.32;;;;;;;23.26;49.68;100661.55;5232095;56;1138992;-64
2022/07/30 11:10:40;;;;;;;5.70;1.50;;;;;;;23.35;47.93;100673.36;5255325;55;1141083;-66
2022/07/30 11:16:00;;;;;;;9.20;1.10;;;;;;;23.38;47.21;100676.99;5321139;55;1138932;-64
2022/07/30 11:21:19;;;;;;;12.77;1.40;;;;;;;23.41;46.50;100672.55;5321236;55;1138960;-64
2022/07/30 11:26:47;;;;;;;12.60;2.22;;;;;;;23.41;46.34;100673.06;5321211;55;1141226;-64
2022/07/30 11:31:53;;;;;;;7.80;1.30;;;;;;;23.34;45.90;100664.11;5285095;55;1139227;-67
2022/07/30 11:37:20;;;;;;;3.50;0.93;;;;;;;23.27;45.38;100665.92;5232235;56;1136937;-67
2022/07/30 11:42:37;;;;;;;14.57;1.00;;;;;;;23.21;46.11;100670.27;5173979;56;1136887;-64
2022/07/30 11:47:49;;;;;;;2.37;1.03;;;;;;;23.17;46.14;100669.50;5204878;55;1139181;-65
2022/07/30 11:52:59;;;;;;;20.97;2.42;;;;;;;23.09;46.38;100665.07;5078034;57;1136960;-67
2022/07/30 11:58:12;;;;;;;8.90;1.27;;;;;;;23.04;46.68;100671.08;5092155;57;1138991;-64
2022/07/30 12:03:21;;;;;;;34.60;2.27;;;;;;;23.04;47.31;100665.69;5078743;57;1134904;-65
2022/07/30 12:08:27;;;;;;;7.15;1.40;;;;;;;22.99;47.59;100671.34;5093547;57;1141016;-64
2022/07/30 12:13:34;;;;;;;19.77;1.40;;;;;;;22.94;48.17;100665.69;5104898;57;1138976;-66
2022/07/30 12:18:40;;;;;;;17.37;4.37;;;;;;;22.92;48.23;100661.00;5118428;56;1141193;-66
2022/07/30 12:23:57;;;;;;;11.77;1.30;;;;;;;22.94;48.73;100656.25;5126713;57;1141031;-64
2022/07/30 12:29:17;;;;;;;10.80;1.37;;;;;;;22.94;48.79;100665.17;5106148;57;1141068;-64
2022/07/30 12:34:24;;;;;;;5.65;1.15;;;;;;;22.97;49.60;100663.95;5240979;55;1140938;-66
2022/07/30 12:39:30;;;;;;;9.13;1.33;;;;;;;23.00;50.55;100668.45;5261364;55;1139000;-63
2022/07/30 12:44:43;;;;;;;9.03;3.05;;;;;;;22.97;51.17;100656.69;5247186;55;1138948;-61
2022/07/30 12:49:50;;;;;;;19.85;15.32;;;;;;;22.91;51.87;100660.70;5150189;57;1139083;-62
2022/07/30 12:55:05;;;;;;;33.95;20.27;;;;;;;22.84;52.70;100658.45;5161662;56;1143187;-62
2022/07/30 13:00:11;;;;;;;37.17;24.00;;;;;;;22.83;53.40;100652.74;5226614;56;1143688;-63
2022/07/30 13:05:17;;;;;;;13.53;10.50;;;;;;;22.81;53.93;100656.98;5167451;56;1143075;-62
2022/07/30 13:10:23;;;;;;;16.70;6.40;;;;;;;22.77;55.07;100657.05;5208952;56;1143133;-64
2022/07/30 13:15:29;;;;;;;5.08;3.10;;;;;;;22.70;56.75;100659.67;5216658;56;1141061;-64
2022/07/30 13:20:35;;;;;;;2.52;2.33;;;;;;;22.61;56.34;100655.97;5206410;56;1139270;-64
2022/07/30 13:25:41;;;;;;;2.15;1.00;;;;;;;22.55;56.90;100659.42;5212740;56;1139226;-66
2022/07/30 13:30:48;;;;;;;6.95;1.62;;;;;;;22.46;57.78;100656.84;5226372;56;1138922;-67
2022/07/30 13:35:55;;;;;;;3.42;1.55;;;;;;;22.38;58.42;100656.16;5196498;56;1139078;-66
2022/07/30 13:41:01;;;;;;;1.40;0.82;;;;;;;22.28;58.96;100655.64;5240061;56;1138988;-65
2022/07/30 13:46:07;;;;;;;5.87;1.35;;;;;;;22.23;59.33;100648.64;5242551;56;1138978;-64
2022/07/30 13:51:13;;;;;;;6.42;2.72;;;;;;;22.16;61.23;100654.45;5217568;56;1139169;-64
2022/07/30 13:56:19;;;;;;;16.16;1.70;;;;;;;22.12;62.46;100654.54;5245676;56;1139032;-64
2022/07/30 14:01:24;;;;;;;1.80;1.00;;;;;;;21.99;63.11;100659.24;5227681;56;1141069;-65
2022/07/30 14:06:30;;;;;;;6.70;1.05;;;;;;;21.92;63.76;100664.53;5230730;56;1138977;-66
2022/07/30 14:11:36;;;;;;;3.72;2.60;;;;;;;21.88;64.96;100661.05;5173570;56;1139038;-65
2022/07/30 14:16:42;;;;;;;6.70;4.20;;;;;;;21.80;66.13;100664.70;5186861;56;1139144;-65
2022/07/30 14:21:48;;;;;;;4.10;1.47;;;;;;;21.80;65.88;100675.47;5155326;56;1139103;-66
2022/07/30 14:26:53;;;;;;;5.58;1.57;;;;;;;21.77;67.12;100669.11;5155107;57;1139032;-65
2022/07/30 14:31:59;;;;;;;4.22;1.90;;;;;;;21.70;68.09;100668.18;5194681;56;1138992;-66
2022/07/30 14:37:05;;;;;;;6.15;1.77;;;;;;;21.65;68.07;100670.11;5154907;57;1139015;-66
2022/07/30 14:42:11;;;;;;;4.78;1.10;;;;;;;21.61;68.61;100661.24;5153329;57;1139223;-66
2022/07/30 14:47:17;;;;;;;5.53;1.20;;;;;;;21.56;69.25;100660.95;5202348;56;1136781;-67
2022/07/30 14:52:23;;;;;;;2.58;1.30;;;;;;;21.46;69.73;100662.59;5202201;57;1136915;-66
2022/07/30 14:57:29;;;;;;;6.10;1.45;;;;;;;21.33;70.24;100666.45;5121516;57;1137057;-65
2022/07/30 15:02:35;;;;;;;1.85;0.95;;;;;;;21.25;71.05;100670.05;5168817;56;1136913;-65
2022/07/30 15:07:41;;;;;;;1.52;1.10;;;;;;;21.18;71.47;100677.17;5206858;56;1136395;-64
2022/07/30 15:12:47;;;;;;;3.52;1.00;;;;;;;21.12;72.10;100671.67;5206868;56;1137015;-66
2022/07/30 15:17:53;;;;;;;1.30;1.02;;;;;;;20.99;72.37;100665.59;5206839;56;1137385;-65
2022/07/30 15:22:58;;;;;;;0.80;0.80;;;;;;;20.92;72.98;100657.94;5206783;56;1137085;-65
2022/07/30 15:28:04;;;;;;;3.67;1.02;;;;;;;20.84;72.90;100650.77;5197859;56;1136845;-65
2022/07/30 15:33:10;;;;;;;7.28;2.10;;;;;;;20.89;73.60;100660.99;5176448;57;1136987;-65
2022/07/30 15:38:16;;;;;;;3.10;1.50;;;;;;;20.91;74.48;100661.14;5206530;56;1136976;-65
2022/07/30 15:43:23;;;;;;;2.65;1.40;;;;;;;20.94;74.94;100658.06;5080878;57;1136951;-67
2022/07/30 15:48:29;;;;;;;6.92;2.15;;;;;;;20.95;75.26;100666.97;5212980;56;1137103;-66
2022/07/30 15:53:35;;;;;;;3.37;1.70;;;;;;;20.90;76.56;100664.01;5219563;55;1136808;-67
2022/07/30 15:58:41;;;;;;;2.58;1.52;;;;;;;20.80;76.40;100660.21;5276265;55;1137173;-66
2022/07/30 16:03:47;;;;;;;2.70;1.90;;;;;;;20.77;76.63;100653.05;5156440;56;1136819;-65
2022/07/30 16:08:52;;;;;;;7.42;3.87;;;;;;;20.73;77.11;100655.25;5248852;55;1136939;-64
2022/07/30 16:13:58;;;;;;;13.25;4.50;;;;;;;20.63;77.50;100651.96;5236619;56;1137012;-66
2022/07/30 16:19:04;;;;;;;6.97;2.33;;;;;;;20.60;77.99;100651.84;5237844;55;1139027;-66
2022/07/30 16:24:10;;;;;;;4.52;1.58;;;;;;;20.57;78.06;100650.85;5240159;56;1135083;-65
2022/07/30 16:29:16;;;;;;;2.60;2.10;;;;;;;20.50;78.24;100649.88;5260421;56;21163;-66
2022/07/30 16:34:23;;;;;;;3.52;1.90;;;;;;;20.46;79.28;100645.08;5241927;56;1135081;-65
2022/07/30 16:39:29;;;;;;;5.60;1.73;;;;;;;20.49;79.38;100648.21;5240407;56;1139054;-65
2022/07/30 16:44:35;;;;;;;2.90;1.97;;;;;;;20.47;79.96;100644.06;5221208;56;1138899;-64
2022/07/30 16:49:41;;;;;;;1.90;1.80;;;;;;;20.34;79.57;100644.60;5206914;56;1138859;-65
2022/07/30 16:54:47;;;;;;;7.35;3.22;;;;;;;20.26;80.14;100648.70;5193758;56;1138921;-64
2022/07/30 16:59:52;;;;;;;3.52;2.77;;;;;;;20.28;80.66;100650.20;5171964;56;1138988;-66
2022/07/30 17:04:58;;;;;;;2.98;2.45;;;;;;;20.29;80.34;100655.91;5183845;56;1138938;-66
2022/07/30 17:10:04;;;;;;;3.00;2.70;;;;;;;20.29;80.92;100653.73;5190904;56;1138949;-65
2022/07/30 17:15:11;;;;;;;9.08;6.40;;;;;;;20.25;80.85;100653.75;5167545;56;1138974;-66
2022/07/30 17:20:17;;;;;;;9.03;5.22;;;;;;;20.25;81.45;100657.77;5124674;56;1138994;-66
2022/07/30 17:25:26;;;;;;;7.22;3.92;;;;;;;20.20;81.37;100648.90;5179733;56;1138953;-67
2022/07/30 17:30:32;;;;;;;10.95;5.90;;;;;;;20.15;81.52;100659.36;5184436;56;1138990;-64
2022/07/30 17:35:38;;;;;;;13.35;7.33;;;;;;;20.18;82.00;100658.14;5059165;57;1141059;-65
2022/07/30 17:40:44;;;;;;;5.28;4.50;;;;;;;20.05;82.22;100663.27;5036692;58;1141017;-66
2022/07/30 17:45:49;;;;;;;12.18;3.85;;;;;;;19.94;83.07;100670.72;5047493;57;1138964;-66
2022/07/30 17:50:56;;;;;;;5.15;3.12;;;;;;;19.85;83.61;100667.75;5004986;57;1141116;-65
2022/07/30 17:56:01;;;;;;;12.43;4.00;;;;;;;19.85;84.15;100675.80;5051324;58;1139025;-66
2022/07/30 18:01:07;;;;;;;5.50;2.98;;;;;;;19.83;84.47;100675.14;5059152;57;1141168;-67
2022/07/30 18:06:12;;;;;;;5.83;3.08;;;;;;;19.96;85.24;100668.70;5055527;57;1139086;-65
2022/07/30 18:11:18;;;;;;;5.87;4.45;;;;;;;19.98;85.17;100680.60;4968946;58;1138968;-67
2022/07/30 18:16:25;;;;;;;5.78;3.45;;;;;;;20.00;85.43;100688.81;5047606;56;1138954;-66
2022/07/30 18:21:31;;;;;;;7.97;4.58;;;;;;;19.99;85.14;100683.63;4980311;58;1138995;-64
2022/07/30 18:26:37;;;;;;;6.70;4.55;;;;;;;20.01;85.49;100692.34;4971398;58;1138343;-65
2022/07/30 18:31:43;;;;;;;10.13;4.58;;;;;;;20.08;85.81;100696.48;4997210;58;1138534;-65
2022/07/30 18:36:50;;;;;;;7.53;4.62;;;;;;;20.01;85.37;100691.00;5092646;57;1141100;-64
2022/07/30 18:41:56;;;;;;;5.97;3.40;;;;;;;19.88;85.47;100698.75;5024144;58;1139031;-65
2022/07/30 18:47:03;;;;;;;12.33;4.87;;;;;;;19.73;85.55;100698.65;5114314;57;1138981;-66
2022/07/30 18:52:09;;;;;;;16.87;7.58;;;;;;;19.75;86.31;100702.00;5009802;58;1141182;-64
2022/07/30 18:57:15;;;;;;;21.33;10.20;;;;;;;19.59;86.72;100707.42;5023332;58;1141120;-66
2022/07/30 19:02:24;;;;;;;13.62;7.40;;;;;;;19.39;87.19;100720.38;5113797;57;1143170;-66
2022/07/30 19:07:28;;;;;;;7.78;5.58;;;;;;;19.24;88.00;100710.85;4998405;58;1141324;-64
2022/07/30 19:12:34;;;;;;;14.40;6.95;;;;;;;19.18;88.51;100718.73;5003216;58;1139142;-66
2022/07/30 19:17:39;;;;;;;15.08;6.97;;;;;;;19.14;89.19;100720.06;5000041;58;1141051;-67
2022/07/30 19:22:45;;;;;;;21.75;9.43;;;;;;;19.11;89.51;100719.89;5011131;58;1141242;-64
2022/07/30 19:27:51;;;;;;;20.25;9.70;;;;;;;19.12;89.74;100724.75;5085345;57;1141052;-66
2022/07/30 19:33:00;;;;;;;17.35;9.18;;;;;;;19.11;89.99;100729.28;5081980;57;1141246;-64
2022/07/30 19:38:06;;;;;;;7.75;4.95;;;;;;;19.14;90.51;100731.63;4993948;58;1141023;-64
2022/07/30 19:43:12;;;;;;;11.22;7.87;;;;;;;19.23;91.16;100736.50;5001656;58;1139001;-65
2022/07/30 19:48:18;;;;;;;6.03;4.50;;;;;;;19.31;90.66;100739.98;5120845;57;1139010;-66
2022/07/30 19:53:25;;;;;;;6.55;3.95;;;;;;;19.35;90.25;100743.67;5197268;56;1136846;-66
2022/07/30 19:58:31;;;;;;;14.05;10.15;;;;;;;19.32;89.63;100743.01;5198236;56;1136954;-66
2022/07/30 20:03:37;;;;;;;7.08;6.05;;;;;;;19.24;89.15;100748.90;5237706;56;1140987;-63
2022/07/30 20:08:44;;;;;;;9.83;4.40;;;;;;;19.17;89.78;100751.41;5241787;56;1136940;-66
2022/07/30 20:13:49;;;;;;;9.30;4.33;;;;;;;19.26;90.35;100749.54;5268005;55;1136925;-67
2022/07/30 20:18:56;;;;;;;4.53;3.67;;;;;;;19.25;89.65;100750.05;5221899;56;1136998;-64
2022/07/30 20:24:02;;;;;;;7.83;4.03;;;;;;;19.19;89.77;100746.72;5214759;56;1136971;-66
2022/07/30 20:29:08;;;;;;;5.20;4.03;;;;;;;19.15;90.04;100751.23;5119213;56;1136902;-67
2022/07/30 20:34:14;;;;;;;4.20;3.80;;;;;;;19.14;90.47;100749.56;5105295;57;1136873;-66
2022/07/30 20:39:19;;;;;;;4.62;4.12;;;;;;;19.10;90.24;100750.39;5135917;57;1137014;-67
2022/07/30 20:44:25;;;;;;;5.50;4.37;;;;;;;19.08;90.34;100742.20;5111242;57;1136935;-66
2022/07/30 20:49:31;;;;;;;6.37;4.90;;;;;;;19.03;90.54;100743.20;5078825;56;1137228;-66
2022/07/30 20:54:38;;;;;;;5.12;4.53;;;;;;;18.95;90.92;100740.01;5071052;57;1136792;-67
2022/07/30 20:59:44;;;;;;;10.28;5.50;;;;;;;18.86;91.38;100736.50;5067717;58;1136945;-65
2022/07/30 21:04:50;;;;;;;9.50;4.87;;;;;;;18.76;91.60;100733.66;5150641;57;1139436;-65
2022/07/30 21:09:56;;;;;;;4.80;3.65;;;;;;;18.78;92.78;100728.47;5150686;57;1136909;-65
2022/07/30 21:15:02;;;;;;;7.78;3.72;;;;;;;18.82;92.21;100728.95;5150747;57;1137195;-66
2022/07/30 21:20:09;;;;;;;3.80;3.50;;;;;;;18.85;92.34;100725.95;5150657;57;1134981;-65
2022/07/30 21:25:15;;;;;;;5.75;3.20;;;;;;;18.85;92.39;100724.11;5150623;57;1135062;-66
2022/07/30 21:30:21;;;;;;;7.72;3.58;;;;;;;18.88;92.11;100726.95;5149252;57;1138931;-66
2022/07/30 21:35:27;;;;;;;5.70;3.65;;;;;;;18.83;92.13;100722.59;5156427;56;1138967;-65
2022/07/30 21:40:33;;;;;;;5.40;3.45;;;;;;;18.81;92.56;100717.90;5209030;56;1139185;-65
2022/07/30 21:45:39;;;;;;;6.55;4.28;;;;;;;18.69;91.95;100719.23;5144521;56;1138934;-67
2022/07/30 21:50:45;;;;;;;6.70;3.70;;;;;;;18.70;92.43;100720.92;5072845;57;1139245;-64
2022/07/30 21:55:51;;;;;;;6.85;3.77;;;;;;;18.67;92.81;100710.53;5107613;57;1138978;-65
2022/07/30 22:01:06;;;;;;;3.72;3.27;;;;;;;18.70;93.26;100706.18;5117540;57;1139026;-65
2022/07/30 22:06:12;;;;;;;8.43;4.37;;;;;;;18.70;93.15;100703.50;5121534;57;1139186;-65
2022/07/30 22:11:18;;;;;;;4.92;3.65;;;;;;;18.66;93.36;100695.45;5114428;57;1138966;-66
2022/07/30 22:16:23;;;;;;;4.80;4.17;;;;;;;18.70;93.79;100699.48;5070453;57;1138985;-65
2022/07/30 22:21:29;;;;;;;4.72;3.50;;;;;;;18.60;93.11;100697.81;5093060;57;1139026;-65
2022/07/30 22:26:35;;;;;;;6.45;3.37;;;;;;;18.45;93.15;100698.61;5085494;57;1139249;-65
2022/07/30 22:31:40;;;;;;;4.83;3.27;;;;;;;18.40;93.59;100684.36;5057561;57;1138915;-65
2022/07/30 22:36:45;;;;;;;5.65;3.33;;;;;;;18.48;94.35;100689.74;5090990;57;1139230;-66
2022/07/30 22:41:51;;;;;;;5.62;3.98;;;;;;;18.52;94.26;100684.87;5072882;57;1139061;-64
2022/07/30 22:46:57;;;;;;;4.42;3.50;;;;;;;18.55;94.60;100680.02;5071898;57;1139216;-66
2022/07/30 22:52:03;;;;;;;4.25;3.83;;;;;;;18.53;94.17;100678.01;5171595;56;1138963;-66
2022/07/30 22:57:08;;;;;;;7.42;3.60;;;;;;;18.44;94.20;100670.14;5184159;56;1138968;-66
2022/07/30 23:02:14;;;;;;;8.53;4.80;;;;;;;18.32;94.42;100667.46;5155007;56;1139027;-67
2022/07/30 23:07:20;;;;;;;4.58;3.83;;;;;;;18.20;94.65;100659.72;5150269;57;1138984;-66
2022/07/30 23:12:26;;;;;;;4.53;3.00;;;;;;;18.15;95.34;100655.89;5152238;57;1138957;-64
2022/07/30 23:17:32;;;;;;;6.62;3.42;;;;;;;18.18;96.04;100659.58;5154069;57;1138949;-67